createdAt,value
2022-08-30T00:05:23.184Z,0
2022-08-30T00:15:00.234Z,0
2022-08-30T00:24:37.123Z,0
2022-08-30T00:34:14.460Z,0
2022-08-30T00:43:51.529Z,0
2022-08-30T00:53:28.387Z,0
2022-08-30T01:03:05.476Z,0
2022-08-30T01:12:42.289Z,0
2022-08-30T01:22:19.180Z,0
2022-08-30T01:31:56.154Z,0
2022-08-30T01:41:33.295Z,0
2022-08-30T01:51:10.382Z,0
2022-08-30T02:00:47.059Z,0
2022-08-30T02:10:24.282Z,0
2022-08-30T02:20:01.435Z,0
2022-08-30T02:29:38.175Z,0
2022-08-30T02:39:15.045Z,0
2022-08-30T02:48:52.458Z,0
2022-08-30T02:58:29.603Z,0
2022-08-30T03:08:06.491Z,0
2022-08-30T03:17:43.582Z,0
2022-08-30T03:27:20.647Z,0
2022-08-30T03:36:57.602Z,0
2022-08-30T03:46:37.292Z,0
2022-08-30T03:56:10.889Z,0
2022-08-30T04:05:48.037Z,0
2022-08-30T04:15:25.220Z,0
2022-08-30T04:25:02.376Z,5.63
2022-08-30T04:34:39.441Z,11.25
2022-08-30T04:44:17.852Z,22.5
2022-08-30T04:53:53.353Z,39.38
2022-08-30T05:03:30.571Z,50.63
2022-08-30T05:13:08.291Z,56.25
2022-08-30T05:22:45.788Z,73.13
2022-08-30T05:32:23.515Z,78.75
2022-08-30T05:42:01.113Z,90
2022-08-30T05:51:41.020Z,95.63
2022-08-30T06:01:16.575Z,106.88
2022-08-30T06:10:54.195Z,112.5
2022-08-30T06:20:31.949Z,118.13
2022-08-30T06:30:09.799Z,129.38
2022-08-30T06:39:47.007Z,135
2022-08-30T06:49:25.091Z,140.63
2022-08-30T06:59:02.766Z,151.88
2022-08-30T07:08:40.587Z,157.5
2022-08-30T07:18:18.477Z,163.13
2022-08-30T07:27:56.460Z,168.75
2022-08-30T07:37:34.550Z,180
2022-08-30T07:47:12.701Z,185.63
2022-08-30T07:56:50.849Z,196.88
2022-08-30T08:06:29.815Z,168.75
2022-08-30T08:16:08.139Z,208.13
2022-08-30T08:25:46.281Z,219.38
2022-08-30T08:35:24.892Z,225
2022-08-30T08:45:04.643Z,253.13
2022-08-30T08:54:41.532Z,264.38
2022-08-30T09:04:20.606Z,292.5
2022-08-30T09:13:58.687Z,292.5
2022-08-30T09:23:36.715Z,309.38
2022-08-30T09:33:15.255Z,343.13
2022-08-30T09:42:53.774Z,365.63
2022-08-30T09:52:32.763Z,466.88
2022-08-30T10:02:25.910Z,3009.38
2022-08-30T10:12:18.085Z,2992.5
2022-08-30T10:22:03.438Z,2891.25
2022-08-30T10:31:43.442Z,2733.75
2022-08-30T10:51:03.886Z,3718.13
2022-08-30T11:00:40.957Z,3532.5
2022-08-30T11:20:03.267Z,2407.5
2022-08-30T11:29:38.814Z,2705.63
2022-08-30T11:39:02.104Z,1625.63
2022-08-30T11:48:55.109Z,3549.38
2022-08-30T12:08:27.946Z,3971.25
2022-08-30T12:18:05.475Z,3414.38
2022-08-30T12:27:42.411Z,1423.13
2022-08-30T12:37:08.054Z,641.25
2022-08-30T12:46:33.999Z,2626.88
2022-08-30T12:56:26.973Z,956.25
2022-08-30T13:05:40.493Z,663.75
2022-08-30T13:15:16.217Z,984.38
2022-08-30T13:25:29.507Z,3307.5
2022-08-30T13:34:44.324Z,506.25
2022-08-30T13:44:11.572Z,1170
2022-08-30T13:54:03.842Z,568.13
2022-08-30T14:13:36.090Z,2154.38
2022-08-30T14:22:52.461Z,573.75
2022-08-30T14:32:24.233Z,765
2022-08-30T14:42:21.562Z,2469.38
2022-08-30T15:11:21.737Z,1946.25
2022-08-30T15:21:00.077Z,1816.88
2022-08-30T15:30:37.164Z,1237.5
2022-08-30T15:40:09.318Z,506.25
2022-08-30T15:49:37.129Z,405
2022-08-30T15:59:12.000Z,523.13
2022-08-30T16:08:46.621Z,281.25
2022-08-30T16:18:22.183Z,275.63
2022-08-30T16:27:58.033Z,236.25
2022-08-30T16:37:34.102Z,202.5
2022-08-30T16:47:04.479Z,185.63
2022-08-30T16:56:40.963Z,135
2022-08-30T17:06:17.884Z,118.13
2022-08-30T17:15:54.337Z,101.25
2022-08-30T17:25:33.984Z,84.38
2022-08-30T17:35:07.431Z,61.88
2022-08-30T17:44:44.296Z,33.75
2022-08-30T18:04:01.530Z,5.63
2022-08-30T18:13:34.744Z,0
2022-08-30T18:23:11.614Z,0
2022-08-30T18:32:48.509Z,0
2022-08-30T18:42:25.098Z,0
2022-08-30T18:52:02.337Z,0
2022-08-30T19:01:40.417Z,0
2022-08-30T19:11:15.888Z,0
2022-08-30T19:20:52.135Z,0
2022-08-30T19:30:30.129Z,0
2022-08-30T19:40:05.647Z,0
2022-08-30T19:49:42.582Z,0
2022-08-30T19:59:19.226Z,0
2022-08-30T20:08:56.504Z,0
2022-08-30T20:18:33.027Z,0
2022-08-30T20:28:09.922Z,0
2022-08-30T20:37:46.497Z,0
2022-08-30T20:47:23.775Z,0
2022-08-30T20:57:01.324Z,0
2022-08-30T21:06:37.855Z,0
2022-08-30T21:16:14.778Z,0
2022-08-30T21:25:51.680Z,0
2022-08-30T21:35:28.860Z,0
2022-08-30T21:45:05.814Z,0
2022-08-30T21:54:42.754Z,0
2022-08-30T22:04:24.386Z,0
2022-08-30T22:13:57.527Z,0
2022-08-30T22:23:34.597Z,0
2022-08-30T22:33:11.213Z,0
2022-08-30T22:42:48.593Z,0
2022-08-30T22:52:25.534Z,0
2022-08-30T23:02:02.471Z,0
2022-08-30T23:11:39.309Z,0
2022-08-30T23:21:16.478Z,0
2022-08-30T23:30:53.620Z,0
2022-08-30T23:40:30.842Z,0
2022-08-30T23:50:07.909Z,0
2022-08-30T23:59:45.060Z,0
